Latest Weather Observations for Yunta

IDS60801

Issued at 6:35 pm CDT Tuesday 27 January 2015 (issued every 30 minutes, with the page automatically refreshed every 10 minutes)

About weather observations | Map of weather stations | Latest weather observations for SA | Other Formats
Station Details ID: 020062 Name: YUNTA AIRSTRIP Lat: -32.57 Lon: 139.56 Height: 300.0 m
Data from the previous 72 hours. | See also: Recent months at Yunta
Date/Time
CDT
Temp
°C
App
Temp
°C
Dew
Point
Rel
Hum
%
Delta-T
°C
Wind Press
QNH
hPa
Press
MSL
hPa
Rain
since 9 am
mm
Dir
 
Spd
km/h
Gust
km/h
Spd
kts
Gust
kts
27/06:30pm 24.4 17.6 0.7 21 11.2 SSE 26 39 14 21 1011.8 1010.2 0.0
27/06:00pm 24.8 17.6 1.0 21 11.3 S 28 41 15 22 1011.8 1010.2 0.0
27/05:30pm 25.0 18.3 1.2 21 11.4 S 26 41 14 22 1012.0 1010.3 0.0
27/05:00pm 24.8 17.6 1.0 21 11.3 S 28 39 15 21 1012.2 1010.5 0.0
27/04:30pm 24.7 18.4 1.6 22 11.1 S 24 35 13 19 1012.3 1010.6 0.0
27/04:00pm 25.0 18.7 1.8 22 11.2 SSE 24 37 13 20 1012.6 1010.9 0.0
27/03:30pm 24.4 18.6 2.5 24 10.7 S 22 37 12 20 1012.9 1011.2 0.0
27/03:00pm 23.8 18.1 2.6 25 10.3 S 22 41 12 22 1013.1 1011.4 0.0
27/02:30pm 23.3 18.1 3.3 27 9.8 S 20 35 11 19 1013.5 1011.9 0.0
27/02:00pm 23.0 17.7 3.0 27 9.7 SSE 20 33 11 18 1013.9 1012.3 0.0
27/01:30pm 22.7 17.6 3.3 28 9.5 SSE 19 30 10 16 1014.3 1012.7 0.0
27/01:00pm 21.3 15.6 3.0 30 8.8 SSE 22 33 12 18 1014.7 1013.1 0.0
27/12:30pm 21.0 16.0 3.7 32 8.4 SSE 19 30 10 16 1015.0 1013.4 0.0
27/12:00pm 21.0 16.1 4.1 33 8.3 SSE 19 30 10 16 1015.3 1013.7 0.0
27/11:30am 20.0 14.1 4.1 35 7.7 SE 24 39 13 21 1015.3 1013.7 0.0
27/11:00am 19.4 14.6 4.7 38 7.2 SSE 19 30 10 16 1015.8 1014.1 0.0
27/10:30am 17.9 13.5 4.5 41 6.5 SSE 17 28 9 15 1016.1 1014.4 0.0
27/10:00am 17.4 13.0 4.7 43 6.1 SSE 17 30 9 16 1016.2 1014.6 0.0
27/09:30am 16.5 11.8 5.2 47 5.5 SSE 19 28 10 15 1016.2 1014.6 0.0
27/09:00am 15.4 10.8 5.6 52 4.7 SSE 19 24 10 13 1016.3 1014.7 0.0
27/08:30am 14.2 9.5 5.3 55 4.2 SSE 19 26 10 14 1016.3 1014.7 0.0
27/08:00am 13.4 10.0 5.8 60 3.6 S 13 17 7 9 1016.4 1014.8 0.0
27/07:30am 12.7 10.5 6.1 64 3.2 S 7 15 4 8 1016.1 1014.4 0.0
27/07:00am 11.7 9.5 6.2 69 2.6 SSW 7 13 4 7 1015.9 1014.2 0.0
27/06:30am 11.2 9.1 5.9 70 2.5 S 6 9 3 5 1015.8 1014.1 0.0
27/06:00am 11.3 9.5 5.6 68 2.7 SSW 4 7 2 4 1015.6 1013.9 0.0
27/05:30am 11.8 9.4 5.4 65 3.0 SSW 7 11 4 6 1015.2 1013.6 0.0
27/05:00am 11.9 9.5 5.3 64 3.1 SSW 7 9 4 5 1015.1 1013.5 0.0
27/04:30am 12.3 10.1 5.2 62 3.3 SSW 6 9 3 5 1015.1 1013.5 0.0
27/04:00am 12.5 10.0 5.0 60 3.5 SSE 7 11 4 6 1015.0 1013.4 0.0
27/03:30am 13.0 11.1 4.7 57 3.9 SSW 4 9 2 5 1014.9 1013.3 0.0
27/03:00am 13.6 10.4 5.0 56 4.1 S 11 20 6 11 1014.9 1013.3 0.0
27/02:30am 14.1 9.7 4.9 54 4.4 S 17 22 9 12 1015.1 1013.5 0.0
27/02:00am 14.6 9.7 4.9 52 4.6 S 20 32 11 17 1015.1 1013.5 0.0
27/01:30am 15.2 10.2 4.6 49 5.0 SSE 20 33 11 18 1015.2 1013.6 0.0
27/01:00am 15.8 10.0 4.2 46 5.5 S 24 33 13 18 1015.3 1013.7 0.0
27/12:30am 16.8 11.7 3.1 40 6.4 S 19 24 10 13 1015.3 1013.7 0.0
27/12:00am 17.3 12.2 2.9 38 6.7 S 19 28 10 15 1015.5 1013.8 0.0
 
Date/Time
CDT
Temp
°C
App
Temp
°C
Dew
Point
Rel
Hum
%
Delta-T
°C
Wind Press
QNH
hPa
Press
MSL
hPa
Rain
since 9 am
mm
Dir
 
Spd
km/h
Gust
km/h
Spd
kts
Gust
kts
26/11:30pm 17.4 13.4 2.6 37 6.8 S 13 19 7 10 1015.3 1013.7 0.0
26/11:00pm 18.0 13.7 3.1 37 7.0 S 15 24 8 13 1015.3 1013.7 0.0
26/10:30pm 18.5 13.4 2.8 35 7.4 SSE 19 26 10 14 1015.3 1013.7 0.0
26/10:00pm 19.0 13.8 2.4 33 7.8 S 19 26 10 14 1015.1 1013.5 0.0
26/09:30pm 19.5 14.7 2.4 32 8.0 SSE 17 22 9 12 1014.7 1013.1 0.0
26/09:00pm 20.1 15.2 2.0 30 8.5 S 17 24 9 13 1014.4 1012.8 0.0
26/08:30pm 20.7 15.2 2.0 29 8.8 S 20 30 11 16 1014.3 1012.7 0.0
26/08:00pm 21.5 16.3 2.2 28 9.2 S 19 26 10 14 1014.0 1012.4 0.0
26/07:30pm 22.4 17.2 2.5 27 9.6 S 19 26 10 14 1013.7 1012.1 0.0
26/07:00pm 22.8 17.1 2.8 27 9.7 SSE 22 33 12 18 1013.5 1011.9 0.0
26/06:30pm 23.6 18.3 3.0 26 10.1 SSW 20 32 11 17 1013.2 1011.6 0.0
26/06:00pm 23.4 18.2 3.4 27 9.8 SSW 20 33 11 18 1013.1 1011.4 0.0
26/05:30pm 23.9 19.1 2.7 25 10.3 S 17 32 9 17 1013.1 1011.4 0.0
26/05:00pm 23.7 18.6 3.1 26 10.1 S 19 32 10 17 1013.2 1011.6 0.0
26/04:35pm 23.6 18.5 3.0 26 10.1 SSE 19 37 10 20 1013.2 1011.6 0.0
26/04:30pm 23.0 17.9 3.0 27 9.7 S 19 32 10 17 1013.4 1011.8 0.0
26/04:00pm 22.9 17.7 2.4 26 9.9 S 19 32 10 17 1013.6 1012.0 0.0
26/03:30pm 23.7 19.7 3.1 26 10.1 SSE 13 24 7 13 1013.9 1012.3 0.0
26/03:00pm 23.0 18.2 2.5 26 9.9 S 17 33 9 18 1014.2 1012.6 0.0
26/02:30pm 22.5 17.7 2.6 27 9.6 S 17 33 9 18 1014.5 1012.9 0.0
26/02:00pm 21.6 17.1 2.3 28 9.2 S 15 30 8 16 1014.9 1013.3 0.0
26/01:30pm 21.4 17.4 3.1 30 8.8 SSE 13 28 7 15 1015.1 1013.5 0.0
26/01:00pm 19.7 15.3 2.6 32 8.1 SSE 15 26 8 14 1015.6 1013.9 0.0
26/12:30pm 20.1 15.0 3.3 33 8.0 SSE 19 28 10 15 1015.9 1014.2 0.0
26/12:00pm 20.1 15.0 3.3 33 8.0 SSE 19 30 10 16 1016.2 1014.6 0.0
26/11:30am 19.2 14.0 3.8 36 7.4 SE 20 33 11 18 1016.3 1014.7 0.0
26/11:00am 18.4 12.8 3.5 37 7.1 SSE 22 33 12 18 1016.5 1014.9 0.0
26/10:30am 17.8 12.2 3.7 39 6.7 SE 22 35 12 19 1016.7 1015.1 0.0
26/10:00am 16.9 10.9 3.6 41 6.3 SSE 24 39 13 21 1016.7 1015.1 0.0
26/09:30am 16.4 11.1 4.8 46 5.6 SSE 22 32 12 17 1017.0 1015.4 0.0
26/09:00am 15.4 10.1 4.8 49 5.1 SE 22 30 12 16 1016.9 1015.3 0.0
26/08:30am 14.8 9.6 5.6 54 4.4 SSE 22 30 12 16 1017.1 1015.5 0.0
26/08:00am 14.2 10.1 6.1 58 3.9 SSE 17 24 9 13 1016.9 1015.3 0.0
26/07:30am 13.3 9.1 5.7 60 3.6 SSE 17 22 9 12 1016.8 1015.2 0.0
26/07:00am 12.4 9.2 5.3 62 3.3 SSE 11 19 6 10 1016.5 1014.9 0.0
26/06:30am 11.9 9.0 4.9 62 3.3 SSE 9 20 5 11 1016.4 1014.8 0.0
26/06:00am 12.1 8.5 5.0 62 3.3 S 13 20 7 11 1016.0 1014.3 0.0
26/05:30am 12.6 8.3 5.3 61 3.4 SSE 17 24 9 13 1015.7 1014.0 0.0
26/05:00am 12.6 9.2 5.8 63 3.2 S 13 20 7 11 1015.2 1013.6 0.0
26/04:30am 12.9 8.7 5.6 61 3.5 S 17 22 9 12 1015.0 1013.4 0.0
26/04:00am 13.3 9.1 5.5 59 3.7 SSE 17 24 9 13 1014.9 1013.3 0.0
26/03:30am 13.6 10.2 5.7 59 3.8 SSE 13 20 7 11 1014.8 1013.2 0.0
26/03:00am 13.9 10.0 5.5 57 4.0 SSE 15 20 8 11 1014.8 1013.2 0.0
26/02:30am 14.3 9.5 5.4 55 4.3 SSE 20 30 11 16 1014.8 1013.2 0.0
26/02:00am 14.8 10.0 5.6 54 4.4 SSE 20 30 11 16 1014.7 1013.1 0.0
26/01:30am 15.4 10.7 5.9 53 4.6 SSE 20 33 11 18 1014.6 1013.0 0.0
26/01:00am 15.9 11.0 5.2 49 5.2 SSE 20 32 11 17 1014.6 1013.0 0.0
26/12:30am 16.4 11.1 4.8 46 5.6 SSE 22 33 12 18 1014.5 1012.9 0.0
26/12:00am 17.1 11.2 4.1 42 6.2 S 24 35 13 19 1014.5 1012.9 0.0
 
Date/Time
CDT
Temp
°C
App
Temp
°C
Dew
Point
Rel
Hum
%
Delta-T
°C
Wind Press
QNH
hPa
Press
MSL
hPa
Rain
since 9 am
mm
Dir
 
Spd
km/h
Gust
km/h
Spd
kts
Gust
kts
25/11:30pm 17.7 11.4 3.9 40 6.6 S 26 35 14 19 1014.1 1012.5 0.0
25/11:00pm 18.2 12.3 4.0 39 6.8 S 24 35 13 19 1014.1 1012.5 0.0
25/10:30pm 18.9 12.9 3.1 35 7.5 S 24 35 13 19 1014.0 1012.4 0.0
25/10:00pm 19.5 13.0 2.4 32 8.0 SSW 26 35 14 19 1013.7 1012.1 0.0
25/09:30pm 20.2 14.0 2.1 30 8.5 SSW 24 33 13 18 1013.2 1011.6 0.0
25/09:00pm 20.9 15.2 0.7 26 9.3 SSW 20 26 11 14 1012.7 1011.0 0.0
25/08:30pm 21.7 15.2 0.3 24 9.8 S 24 35 13 19 1012.1 1010.4 0.0
25/08:00pm 22.8 15.6 0.6 23 10.3 S 28 39 15 21 1011.7 1010.1 0.0
25/07:30pm 23.8 17.1 1.4 23 10.7 S 26 32 14 17 1011.5 1009.9 0.0
25/07:00pm 24.8 18.6 2.3 23 10.9 S 24 37 13 20 1011.2 1009.6 0.0
25/06:30pm 25.1 18.4 1.3 21 11.4 SSW 26 39 14 21 1010.8 1009.2 0.0
25/06:00pm 25.7 19.0 -1.2 17 12.4 SSW 24 35 13 19 1010.8 1009.2 0.0
25/05:30pm 25.4 18.6 0.8 20 11.7 S 26 35 14 19 1010.9 1009.3 0.0
25/05:00pm 26.1 20.5 1.4 20 11.9 SSW 20 35 11 19 1010.9 1009.3 0.0
25/04:30pm 25.9 20.3 1.2 20 11.9 SSW 20 30 11 16 1010.8 1009.2 0.0
25/04:00pm 26.2 20.8 1.5 20 12.0 SSW 19 30 10 16 1011.0 1009.4 0.0
25/03:30pm 25.7 20.0 3.0 23 11.3 S 22 37 12 20 1011.2 1009.6 0.0
25/03:00pm 25.0 19.6 2.4 23 11.0 SSW 20 32 11 17 1011.4 1009.8 0.0
25/02:30pm 24.7 19.1 3.4 25 10.6 SSW 22 37 12 20 1011.5 1009.9 0.0
25/02:00pm 23.5 17.9 3.4 27 9.9 S 22 37 12 20 1011.7 1010.1 0.0
25/01:30pm 22.7 17.7 3.8 29 9.3 SSW 19 32 10 17 1011.8 1010.2 0.0
25/01:00pm 22.5 17.8 5.0 32 8.8 S 19 30 10 16 1012.1 1010.4 0.0
25/12:30pm 21.2 15.9 5.1 35 8.1 SSW 22 32 12 17 1012.4 1010.7 0.0
25/12:00pm 20.7 15.9 4.7 35 7.9 SSW 19 35 10 19 1012.8 1011.1 0.0
25/11:30am 20.3 15.3 4.8 36 7.7 SSW 20 32 11 17 1012.5 1010.8 0.0
25/11:00am 20.0 15.6 6.4 41 6.9 SSW 19 30 10 16 1012.5 1010.8 0.0
25/10:30am 19.8 14.9 6.9 43 6.6 S 22 39 12 21 1012.5 1010.8 0.0
25/10:00am 18.6 13.7 7.1 47 5.9 S 22 35 12 19 1012.7 1011.0 0.0
25/09:30am 17.6 12.2 8.2 54 4.9 SSW 26 33 14 18 1012.6 1010.9 0.0
25/09:00am 17.8 12.9 8.6 55 4.8 S 24 30 13 16 1012.3 1010.6 0.0
25/08:30am 17.3 12.5 8.7 57 4.5 S 24 33 13 18 1012.0 1010.3 0.0
25/08:00am 16.4 10.8 8.9 61 3.9 S 28 35 15 19 1011.7 1010.1 0.0
25/07:30am 16.3 12.0 9.3 63 3.7 S 22 28 12 15 1011.2 1009.6 0.0
25/07:00am 15.7 13.5 10.7 72 2.7 S 13 20 7 11 1010.8 1009.2 0.0
25/06:30am 15.1 13.2 10.5 74 2.5 SSW 11 15 6 8 1010.5 1008.9 0.0
25/06:00am 15.6 14.1 10.6 72 2.7 SSW 9 13 5 7 1010.3 1008.7 0.0
25/05:30am 15.4 13.9 10.4 72 2.7 SSW 9 13 5 7 1009.9 1008.2 0.0
25/05:00am 15.9 13.2 10.4 70 2.9 SSW 15 19 8 10 1009.6 1007.9 0.0
25/04:30am 16.3 13.2 10.4 68 3.2 SSW 17 24 9 13 1009.5 1007.8 0.0
25/04:00am 16.7 13.3 10.5 67 3.3 SSW 19 22 10 12 1009.1 1007.4 0.0
25/03:30am 17.1 13.7 10.5 65 3.6 SSW 19 22 10 12 1009.2 1007.5 0.0
25/03:00am 17.7 14.2 10.3 62 4.0 SSW 19 28 10 15 1009.5 1007.8 0.0
25/02:30am 17.9 14.2 10.3 61 4.1 SSW 20 32 11 17 1009.2 1007.5 0.0
25/02:00am 18.4 14.9 10.3 59 4.4 SSW 19 28 10 15 1009.3 1007.6 0.0
25/01:30am 18.8 15.1 10.1 57 4.7 SSW 20 30 11 16 1009.4 1007.7 0.0
25/01:00am 19.2 15.0 9.9 55 5.0 SSW 22 33 12 18 1009.4 1007.7 0.0
25/12:30am 19.9 14.9 9.5 51 5.6 SSW 26 37 14 20 1009.2 1007.5 0.0
25/12:00am 20.5 16.1 9.1 48 6.1 SSW 22 32 12 17 1009.2 1007.5 0.0
 
Date/Time
CDT
Temp
°C
App
Temp
°C
Dew
Point
Rel
Hum
%
Delta-T
°C
Wind Press
QNH
hPa
Press
MSL
hPa
Rain
since 9 am
mm
Dir
 
Spd
km/h
Gust
km/h
Spd
kts
Gust
kts
24/11:30pm 21.2 16.5 9.4 47 6.4 SW 24 32 13 17 1009.2 1007.5 0.0
24/11:00pm 21.8 16.8 9.7 46 6.6 SW 26 35 14 19 1009.1 1007.4 0.0
24/10:30pm 22.7 17.1 8.8 41 7.5 SW 28 39 15 21 1008.7 1007.0 0.0
24/10:00pm 23.7 18.8 6.9 34 8.8 SSW 22 32 12 17 1008.2 1006.6 0.0
24/09:30pm 24.3 19.0 6.6 32 9.3 SW 24 35 13 19 1007.7 1006.1 0.0
24/09:00pm 24.8 19.2 5.6 29 9.9 SW 24 32 13 17 1007.1 1005.4 0.0
24/08:30pm 25.7 18.7 4.2 25 10.9 SW 30 39 16 21 1006.4 1004.7 0.0
24/08:00pm 27.1 19.7 4.2 23 11.7 SW 32 41 17 22 1005.8 1004.1 0.0
24/07:30pm 28.8 21.4 2.1 18 13.3 SW 30 39 16 21 1005.1 1003.4 0.0
24/07:00pm 29.9 22.3 3.0 18 13.7 SW 32 39 17 21 1004.5 1002.9 0.0

Other Formats:

Comma delimited format used in spreadsheet applications
http://www.bom.gov.au/fwo/IDS60801/IDS60801.94684.axf

JavaScript Object Notation format (JSON) in row-major order
http://www.bom.gov.au/fwo/IDS60801/IDS60801.94684.json